Time;durP1;ratioP1;P1;durP2;ratioP2;P2;SDS_P1;SDS_P2;PMS_P1;PMS_P2;Temp;Humidity;BMP_temperature;BMP_pressure;BME280_temperature;BME280_humidity;BME280_pressure;Samples;Min_cycle;Max_cycle;Signal;HPM_P1;HPM_P2
2022/01/20 00:00:44;;;;;;;2.90;0.47;;;;;;;1.27;76.24;99966.34;4969978;28;20023;-81
2022/01/20 00:03:15;;;;;;;1.83;0.50;;;;;;;1.09;76.07;99975.22;4941185;29;20020;-82
2022/01/20 00:27:33;;;;;;;2.33;0.55;;;;;;;1.26;73.07;99996.47;4984881;28;19928;-83
2022/01/20 00:35:24;;;;;;;1.52;0.28;;;;;;;1.28;70.65;99995.34;4916939;29;20037;-81
2022/01/20 00:37:49;;;;;;;2.80;0.50;;;;;;;1.17;69.10;99988.50;4928400;29;20035;-82
2022/01/20 00:40:16;;;;;;;3.10;0.50;;;;;;;1.37;70.90;100025.38;4953194;29;20035;-81
2022/01/20 00:42:41;;;;;;;7.18;1.08;;;;;;;1.35;70.45;100022.88;4969482;29;20024;-83
2022/01/20 00:45:08;;;;;;;5.97;0.95;;;;;;;1.10;71.42;100021.94;4951673;29;20032;-82
2022/01/20 00:47:34;;;;;;;4.85;0.68;;;;;;;1.28;71.60;100018.38;4951148;29;20472;-81
2022/01/20 00:49:59;;;;;;;4.13;0.40;;;;;;;1.31;72.47;100029.47;4970576;29;20030;-83
2022/01/20 00:52:25;;;;;;;3.78;0.43;;;;;;;1.26;72.26;100028.28;4969061;29;20093;-83
2022/01/20 00:54:50;;;;;;;7.20;0.50;;;;;;;1.31;72.48;100010.94;4969679;29;20647;-83
2022/01/20 00:57:16;;;;;;;5.93;0.85;;;;;;;1.32;72.43;100028.47;4970381;28;20043;-83
2022/01/20 00:59:42;;;;;;;5.13;0.80;;;;;;;1.18;71.48;100050.28;4968391;29;20039;-82
2022/01/20 01:02:10;;;;;;;3.78;0.50;;;;;;;1.20;70.53;100053.63;4947487;29;20123;-82
2022/01/20 01:04:37;;;;;;;3.80;0.70;;;;;;;1.06;69.13;100032.97;4949482;29;20043;-83
2022/01/20 01:07:42;;;;;;;5.78;0.65;;;;;;;1.16;69.97;100044.31;4945304;29;20034;-83
2022/01/20 01:10:08;;;;;;;6.25;0.77;;;;;;;1.18;69.05;100047.63;4969917;28;20027;-81
2022/01/20 01:13:11;;;;;;;5.00;0.82;;;;;;;1.21;66.77;100047.31;4972044;29;20046;-81
2022/01/20 01:15:35;;;;;;;4.93;0.73;;;;;;;1.30;65.34;100046.38;4972573;29;20043;-84
2022/01/20 01:23:37;;;;;;;7.28;0.85;;;;;;;1.18;64.33;100037.03;4956256;29;20035;-82
2022/01/20 01:26:05;;;;;;;2.58;0.50;;;;;;;1.01;63.83;100056.47;4972593;29;20035;-82
2022/01/20 01:28:32;;;;;;;2.67;0.40;;;;;;;1.11;63.41;100049.25;4970559;29;20050;-83
2022/01/20 01:33:33;;;;;;;2.08;0.57;;;;;;;1.09;61.76;100072.41;4970290;29;20437;-83
2022/01/20 01:35:59;;;;;;;4.10;0.90;;;;;;;0.99;56.70;100101.66;4951951;29;20031;-80
2022/01/20 01:38:43;;;;;;;3.10;0.47;;;;;;;1.19;62.00;100107.56;4953178;29;20038;-82
2022/01/20 01:41:12;;;;;;;2.95;0.60;;;;;;;1.18;60.36;100105.94;4953645;29;20027;-83
2022/01/20 01:43:41;;;;;;;3.53;0.57;;;;;;;1.29;59.92;100121.59;4971792;29;20509;-82
2022/01/20 01:46:07;;;;;;;6.53;0.95;;;;;;;1.12;61.76;100099.41;4952625;29;20558;-82
2022/01/20 01:48:34;;;;;;;7.18;1.05;;;;;;;1.05;60.31;100094.91;4952602;29;20034;-82
2022/01/20 01:51:00;;;;;;;4.68;0.70;;;;;;;1.17;58.63;100080.44;4971791;29;20034;-83
2022/01/20 01:53:27;;;;;;;3.03;0.70;;;;;;;1.15;58.49;100087.69;4954398;29;20109;-82
2022/01/20 01:55:52;;;;;;;7.50;1.13;;;;;;;1.27;60.95;100115.59;4968550;28;20047;-82
2022/01/20 01:58:18;;;;;;;4.78;1.02;;;;;;;1.29;60.92;100102.19;4971783;29;20062;-83
2022/01/20 02:00:44;;;;;;;4.85;1.10;;;;;;;1.25;56.69;100085.75;4957141;29;20022;-83
2022/01/20 02:03:12;;;;;;;7.85;0.70;;;;;;;1.22;57.21;100083.41;4970691;29;20516;-82
2022/01/20 02:05:50;;;;;;;3.58;0.68;;;;;;;1.30;60.18;100088.78;4971316;29;20035;-84
2022/01/20 02:18:59;;;;;;;2.65;0.80;;;;;;;1.28;56.50;100125.19;4957025;29;20050;-82
2022/01/20 02:21:25;;;;;;;2.45;0.63;;;;;;;1.18;58.15;100148.31;4937138;29;20023;-84
2022/01/20 02:23:50;;;;;;;3.50;0.60;;;;;;;1.17;57.46;100075.94;4920274;29;20041;-84
2022/01/20 02:26:16;;;;;;;4.32;0.68;;;;;;;1.31;58.96;100114.28;4939797;29;20049;-83
2022/01/20 02:28:41;;;;;;;4.07;0.85;;;;;;;1.09;57.38;100110.34;4939009;29;20046;-82
2022/01/20 02:31:07;;;;;;;4.22;0.80;;;;;;;1.38;60.50;100107.38;4972891;29;20035;-82
2022/01/20 02:33:33;;;;;;;4.60;0.95;;;;;;;1.39;58.95;100127.63;4975497;29;20032;-83
2022/01/20 02:36:06;;;;;;;11.48;1.40;;;;;;;1.36;59.01;100114.66;4957477;29;20023;-83
2022/01/20 02:46:25;;;;;;;2.92;0.60;;;;;;;1.51;58.86;100111.44;4966627;29;20296;-84
2022/01/20 02:48:51;;;;;;;3.75;1.15;;;;;;;1.44;57.31;100158.94;4975288;29;20034;-83
2022/01/20 02:51:16;;;;;;;4.95;0.88;;;;;;;1.32;59.65;100121.25;4964553;28;20095;-83
2022/01/20 02:53:42;;;;;;;2.80;0.63;;;;;;;1.36;56.94;100124.44;4955366;29;20046;-85
2022/01/20 02:56:08;;;;;;;2.53;0.70;;;;;;;1.35;58.58;100128.06;4972609;28;20047;-84
2022/01/20 02:58:34;;;;;;;4.22;1.08;;;;;;;1.44;58.71;100150.16;4971553;29;20071;-82
2022/01/20 03:01:00;;;;;;;3.17;0.63;;;;;;;1.43;58.56;100129.94;4972290;29;20034;-85
2022/01/20 03:03:26;;;;;;;3.35;0.45;;;;;;;1.49;57.63;100150.50;4975088;29;20066;-84
2022/01/20 03:05:52;;;;;;;2.53;0.50;;;;;;;1.11;58.35;100087.16;4972811;29;20082;-83
2022/01/20 03:08:17;;;;;;;3.85;0.70;;;;;;;1.32;59.92;100149.56;4972776;28;20027;-85
2022/01/20 03:10:43;;;;;;;2.65;0.68;;;;;;;1.35;59.63;100098.91;4971819;29;20273;-86
2022/01/20 03:13:08;;;;;;;8.05;0.75;;;;;;;1.43;58.39;100152.00;4956889;29;20035;-84
2022/01/20 03:15:35;;;;;;;5.13;0.90;;;;;;;1.23;58.94;100155.84;4955700;29;20031;-84
2022/01/20 03:18:02;;;;;;;6.80;0.88;;;;;;;1.22;59.77;100139.06;4940881;29;20023;-83
2022/01/20 03:20:27;;;;;;;5.18;1.00;;;;;;;1.18;59.92;100132.44;4955811;29;20023;-83
2022/01/20 03:22:53;;;;;;;3.03;0.38;;;;;;;1.45;60.10;100175.69;4971779;29;20042;-83
2022/01/20 03:25:18;;;;;;;4.50;0.50;;;;;;;1.20;59.22;100127.81;4919472;29;20105;-83
2022/01/20 03:27:44;;;;;;;1.85;0.40;;;;;;;1.48;60.20;100138.25;4969030;29;20027;-83
2022/01/20 03:30:10;;;;;;;5.40;0.63;;;;;;;1.45;58.59;100207.50;4941544;29;20038;-83
2022/01/20 03:32:35;;;;;;;2.92;0.47;;;;;;;1.44;58.95;100160.75;4975880;28;20054;-84
2022/01/20 03:35:04;;;;;;;4.22;0.82;;;;;;;1.35;58.76;100173.13;4959438;29;20038;-85
2022/01/20 03:37:29;;;;;;;2.17;0.40;;;;;;;1.29;58.76;100158.69;4975020;28;20031;-85
2022/01/20 03:39:55;;;;;;;1.95;0.47;;;;;;;1.30;59.19;100213.34;4975502;29;20016;-82
2022/01/20 03:42:20;;;;;;;2.20;0.38;;;;;;;1.31;60.06;100180.56;4974416;29;20027;-83
2022/01/20 03:44:46;;;;;;;3.67;0.50;;;;;;;1.45;58.63;100171.19;4959540;29;20090;-85
2022/01/20 03:47:11;;;;;;;5.03;0.65;;;;;;;1.38;59.72;100218.72;4943430;29;20050;-83
2022/01/20 03:49:50;;;;;;;3.75;0.50;;;;;;;1.29;61.64;100197.59;4975304;29;20043;-83
2022/01/20 03:52:15;;;;;;;6.15;0.50;;;;;;;1.39;60.43;100200.97;4943613;29;20048;-84
2022/01/20 03:54:41;;;;;;;5.72;0.80;;;;;;;1.26;60.62;100185.50;4959663;29;20007;-83
2022/01/20 03:57:06;;;;;;;3.25;0.43;;;;;;;1.25;59.96;100228.88;4975699;28;20090;-84
2022/01/20 03:59:32;;;;;;;4.75;0.60;;;;;;;1.21;61.51;100227.53;4978500;28;20031;-85
2022/01/20 04:01:57;;;;;;;5.97;0.60;;;;;;;1.23;60.28;100217.59;4977851;28;20441;-83
2022/01/20 04:04:22;;;;;;;4.13;0.80;;;;;;;1.26;60.63;100229.69;4995091;28;20023;-83
2022/01/20 04:06:48;;;;;;;2.05;0.60;;;;;;;1.19;62.45;100245.38;4976384;28;20031;-83
2022/01/20 04:09:13;;;;;;;3.72;0.80;;;;;;;1.07;60.04;100231.53;4977270;28;20050;-83
2022/01/20 04:11:39;;;;;;;4.00;0.60;;;;;;;1.11;60.78;100226.78;4976926;28;20038;-84
2022/01/20 04:14:04;;;;;;;5.25;0.80;;;;;;;1.18;61.29;100296.72;4976775;28;20090;-82
2022/01/20 04:16:51;;;;;;;6.05;0.68;;;;;;;1.21;60.72;100237.28;4977263;28;20019;-84
2022/01/20 04:19:16;;;;;;;2.17;1.05;;;;;;;1.20;61.75;100270.09;4994775;28;20018;-83
2022/01/20 04:21:42;;;;;;;3.05;0.70;;;;;;;1.17;58.75;100279.16;4977002;28;20027;-83
2022/01/20 04:24:09;;;;;;;3.58;0.70;;;;;;;1.27;59.12;100311.72;4976826;28;20027;-83
2022/01/20 04:26:35;;;;;;;2.08;0.55;;;;;;;1.28;59.80;100300.13;4992761;28;20046;-83
2022/01/20 04:29:03;;;;;;;1.65;0.60;;;;;;;1.28;58.67;100284.22;4993184;28;20029;-84
2022/01/20 04:31:30;;;;;;;2.35;0.50;;;;;;;1.32;56.06;100267.03;4993576;28;20035;-83
2022/01/20 04:33:57;;;;;;;4.32;0.50;;;;;;;1.35;55.63;100319.75;4984436;28;20044;-84
2022/01/20 04:36:24;;;;;;;1.67;0.50;;;;;;;1.41;54.46;100366.84;4993237;28;20034;-84
2022/01/20 04:38:49;;;;;;;2.17;0.57;;;;;;;1.37;54.90;100369.97;4974633;28;20027;-84
2022/01/20 04:41:15;;;;;;;3.53;0.52;;;;;;;1.35;54.90;100306.47;4974491;28;20026;-84
2022/01/20 04:43:40;;;;;;;3.30;0.60;;;;;;;1.27;57.85;100369.19;4976049;28;20126;-86
2022/01/20 04:46:28;;;;;;;1.00;0.28;;;;;;;1.34;57.54;100343.75;4976335;28;20098;-84
2022/01/20 04:56:58;;;;;;;2.90;0.40;;;;;;;1.18;57.90;100342.59;4956523;29;20135;-84
2022/01/20 04:57:21;;;;;;;2.85;0.85;;;;;;;1.32;57.82;100330.63;4992884;28;20066;-84
2022/01/20 04:59:53;;;;;;;2.88;0.57;;;;;;;1.37;57.56;100344.28;4952700;28;20091;-83
2022/01/20 05:02:18;;;;;;;2.05;0.55;;;;;;;1.30;58.24;100342.41;4972794;28;20023;-82
2022/01/20 05:04:44;;;;;;;2.05;0.45;;;;;;;1.29;60.95;100336.28;4993122;28;20027;-84
2022/01/20 05:07:17;;;;;;;2.42;0.65;;;;;;;1.33;61.12;100358.00;4971395;28;20030;-83
2022/01/20 05:09:42;;;;;;;2.53;0.45;;;;;;;1.37;59.48;100343.47;4990060;28;20029;-83
2022/01/20 05:12:11;;;;;;;4.18;0.50;;;;;;;1.51;60.97;100355.34;4971729;28;20066;-84
2022/01/20 05:14:37;;;;;;;5.22;0.70;;;;;;;1.43;61.61;100347.34;4957765;29;20111;-83
2022/01/20 05:17:03;;;;;;;4.43;0.80;;;;;;;1.61;62.43;100356.94;4990497;28;20050;-84
2022/01/20 05:19:30;;;;;;;4.50;0.85;;;;;;;1.43;63.76;100361.41;4969404;28;20038;-83
2022/01/20 05:21:56;;;;;;;3.60;0.68;;;;;;;1.54;61.82;100355.06;4987192;28;20030;-84
2022/01/20 05:24:22;;;;;;;5.45;0.47;;;;;;;1.65;64.42;100376.84;4977341;28;20061;-83
2022/01/20 05:26:50;;;;;;;5.72;0.80;;;;;;;1.65;63.58;100383.97;4974966;28;20026;-86
2022/01/20 05:29:16;;;;;;;5.90;1.23;;;;;;;1.62;64.77;100389.59;4985187;28;20054;-85
2022/01/20 05:31:41;;;;;;;2.75;0.60;;;;;;;1.59;63.90;100414.63;4995951;28;20038;-84
2022/01/20 05:34:07;;;;;;;6.55;0.77;;;;;;;1.61;65.30;100402.00;4976062;28;20090;-84
2022/01/20 05:36:32;;;;;;;4.55;0.70;;;;;;;1.67;63.08;100427.09;4973755;28;20031;-83
2022/01/20 05:38:58;;;;;;;3.72;0.60;;;;;;;1.73;63.99;100421.22;4977238;28;20039;-84
2022/01/20 05:41:23;;;;;;;4.00;0.65;;;;;;;1.79;63.68;100423.25;4973407;28;20066;-82
2022/01/20 05:43:48;;;;;;;3.17;0.60;;;;;;;1.88;63.34;100418.84;4975448;28;20141;-85
2022/01/20 05:46:16;;;;;;;3.40;0.45;;;;;;;1.78;61.75;100434.00;4979375;28;20130;-81
2022/01/20 05:48:47;;;;;;;5.53;0.70;;;;;;;1.65;64.83;100423.75;4978743;28;20433;-81
2022/01/20 05:51:12;;;;;;;3.60;0.50;;;;;;;1.76;63.62;100447.44;4967374;28;20031;-84
2022/01/20 05:53:38;;;;;;;3.35;0.68;;;;;;;1.73;62.78;100433.63;4990534;28;20034;-83
2022/01/20 05:56:04;;;;;;;3.00;0.57;;;;;;;1.78;63.19;100481.75;4949153;28;20452;-80
2022/01/20 05:58:29;;;;;;;1.30;0.32;;;;;;;1.72;64.55;100434.59;4980305;28;20035;-82
2022/01/20 06:00:55;;;;;;;2.72;0.40;;;;;;;1.87;64.59;100436.59;4964841;28;20035;-80
2022/01/20 06:03:36;;;;;;;3.13;0.45;;;;;;;1.68;64.72;100415.50;4990000;28;20046;-84
2022/01/20 06:06:02;;;;;;;3.00;0.47;;;;;;;1.83;62.80;100467.06;4974288;28;20035;-84
2022/01/20 06:08:28;;;;;;;2.08;0.60;;;;;;;1.86;64.06;100484.50;4960635;28;20031;-79
2022/01/20 06:10:53;;;;;;;3.58;0.60;;;;;;;1.88;66.62;100464.78;4983550;28;20039;-80
2022/01/20 06:13:18;;;;;;;4.28;0.50;;;;;;;1.84;65.41;100491.75;4932384;28;20116;-80
2022/01/20 06:15:45;;;;;;;2.60;0.63;;;;;;;1.99;65.21;100461.09;4973637;28;20105;-79
2022/01/20 06:18:10;;;;;;;3.72;0.88;;;;;;;2.04;63.76;100476.53;4957267;28;20019;-81
2022/01/20 06:20:37;;;;;;;5.25;0.70;;;;;;;1.96;64.30;100471.16;4957856;28;20058;-80
2022/01/20 06:23:07;;;;;;;3.17;0.40;;;;;;;2.02;63.05;100482.00;4971996;28;20059;-80
2022/01/20 06:25:33;;;;;;;2.70;0.68;;;;;;;2.07;63.30;100486.84;4972975;28;20505;-79
2022/01/20 06:27:59;;;;;;;2.08;0.50;;;;;;;1.91;63.23;100479.56;4973685;28;20883;-82
2022/01/20 06:30:25;;;;;;;5.07;0.60;;;;;;;2.00;64.94;100497.25;4959111;28;20018;-81
2022/01/20 06:32:51;;;;;;;3.40;0.65;;;;;;;2.17;61.18;100498.22;4986712;28;20026;-80
2022/01/20 06:35:17;;;;;;;4.80;0.30;;;;;;;2.14;61.55;100521.59;4958278;28;20123;-79
2022/01/20 06:37:42;;;;;;;6.03;0.57;;;;;;;2.01;61.05;100511.34;4970895;28;20357;-79
2022/01/20 06:40:08;;;;;;;3.05;0.40;;;;;;;2.05;59.76;100528.63;4971847;28;20027;-79
2022/01/20 06:42:34;;;;;;;1.73;0.30;;;;;;;2.05;58.84;100497.63;4971176;28;20043;-79
2022/01/20 06:45:00;;;;;;;13.73;0.57;;;;;;;2.09;59.25;100546.75;4975753;28;20027;-81
2022/01/20 06:47:25;;;;;;;3.20;0.90;;;;;;;1.95;60.50;100560.53;4958588;28;20023;-86
2022/01/20 06:49:51;;;;;;;3.10;0.40;;;;;;;2.01;61.08;100540.53;4994421;28;20031;-86
2022/01/20 06:52:16;;;;;;;1.70;0.28;;;;;;;1.96;58.57;100574.66;4975378;28;20031;-85
2022/01/20 06:54:42;;;;;;;2.83;0.50;;;;;;;1.95;60.93;100560.53;4972846;28;20035;-84
2022/01/20 06:57:07;;;;;;;2.83;0.65;;;;;;;1.84;58.45;100563.41;4971791;28;20106;-82
2022/01/20 06:59:32;;;;;;;3.53;0.55;;;;;;;1.80;60.99;100562.84;4986331;28;20027;-84
2022/01/20 07:01:58;;;;;;;5.30;0.45;;;;;;;1.79;60.43;100586.91;4989887;28;20030;-83
2022/01/20 07:04:26;;;;;;;2.78;0.55;;;;;;;1.82;62.23;100616.63;4971990;28;20039;-84
2022/01/20 07:06:52;;;;;;;2.63;0.52;;;;;;;1.85;61.99;100603.06;4997554;28;20034;-83
2022/01/20 07:09:17;;;;;;;1.33;0.30;;;;;;;1.77;60.12;100605.59;4991401;28;20111;-84
2022/01/20 07:11:43;;;;;;;3.60;0.52;;;;;;;1.80;60.50;100609.78;4975861;28;20038;-85
2022/01/20 07:14:08;;;;;;;4.32;0.55;;;;;;;1.81;63.12;100611.44;4991892;28;20034;-83
2022/01/20 07:16:34;;;;;;;7.78;0.75;;;;;;;1.89;63.06;100614.22;5000248;28;20058;-82
2022/01/20 07:18:59;;;;;;;2.28;0.43;;;;;;;1.88;61.52;100602.72;4995782;28;20054;-84
2022/01/20 07:21:24;;;;;;;2.10;0.30;;;;;;;1.81;60.00;100585.75;5004318;28;20034;-82
2022/01/20 07:23:50;;;;;;;1.55;0.55;;;;;;;1.91;61.22;100622.00;4982114;28;20027;-84
2022/01/20 07:26:16;;;;;;;2.63;0.35;;;;;;;1.93;61.60;100607.63;4992885;28;20099;-83
2022/01/20 07:28:42;;;;;;;1.98;0.40;;;;;;;1.78;63.52;100643.56;4992674;28;20098;-83
2022/01/20 07:31:08;;;;;;;5.95;0.70;;;;;;;1.79;61.74;100661.19;4997888;28;20027;-83
2022/01/20 07:33:34;;;;;;;4.22;0.60;;;;;;;1.75;60.94;100644.69;4990798;28;20259;-82
2022/01/20 07:35:59;;;;;;;2.78;0.47;;;;;;;1.70;59.38;100660.22;4988777;28;20357;-81
2022/01/20 07:38:25;;;;;;;4.47;0.65;;;;;;;1.76;59.74;100646.38;4957718;28;20026;-82
2022/01/20 07:40:51;;;;;;;3.50;0.52;;;;;;;1.84;61.53;100659.75;4989737;28;20042;-82
2022/01/20 07:43:16;;;;;;;2.15;0.40;;;;;;;1.81;59.43;100633.50;4996643;28;20035;-82
2022/01/20 07:45:42;;;;;;;1.95;0.38;;;;;;;1.80;57.99;100658.38;4973998;28;20027;-84
2022/01/20 07:48:08;;;;;;;2.67;0.60;;;;;;;1.80;59.86;100676.94;4974721;28;20039;-83
2022/01/20 07:50:33;;;;;;;2.35;0.60;;;;;;;1.68;56.75;100686.03;4991935;28;20026;-79
2022/01/20 07:52:58;;;;;;;2.08;0.50;;;;;;;1.91;54.75;100696.31;4974253;28;20059;-85
2022/01/20 07:55:24;;;;;;;3.10;0.45;;;;;;;1.77;54.73;100690.47;4989554;28;20074;-83
2022/01/20 07:57:49;;;;;;;2.63;0.40;;;;;;;1.78;53.27;100676.22;4943089;29;20066;-85
2022/01/20 08:00:15;;;;;;;2.03;0.20;;;;;;;1.72;54.39;100700.69;4985114;28;20039;-84
2022/01/20 08:02:40;;;;;;;1.23;0.47;;;;;;;1.75;55.98;100724.28;4985718;28;20027;-84
2022/01/20 08:05:06;;;;;;;0.75;0.20;;;;;;;1.66;53.66;100682.72;4979005;28;20015;-85
2022/01/20 08:07:31;;;;;;;0.70;0.20;;;;;;;1.67;53.29;100715.38;4992622;28;20098;-84
2022/01/20 08:09:58;;;;;;;0.88;0.22;;;;;;;1.58;55.18;100743.59;4926546;29;20147;-83
2022/01/20 08:12:28;;;;;;;2.13;0.30;;;;;;;1.72;55.62;100707.81;4959589;29;20050;-86
2022/01/20 08:14:55;;;;;;;1.60;0.40;;;;;;;1.64;51.81;100748.31;4958753;28;20019;-84
2022/01/20 08:17:21;;;;;;;1.20;0.20;;;;;;;1.68;55.55;100707.25;4973794;28;20050;-84
2022/01/20 08:19:47;;;;;;;1.27;0.32;;;;;;;1.68;53.02;100704.59;4961383;29;20023;-83
2022/01/20 08:22:13;;;;;;;1.45;0.20;;;;;;;1.64;55.05;100631.63;4972542;29;20034;-80
2022/01/20 08:24:39;;;;;;;4.20;0.30;;;;;;;1.64;54.75;100722.63;4963986;28;20019;-81
2022/01/20 08:27:04;;;;;;;3.53;0.30;;;;;;;1.66;55.34;100711.91;4963035;28;20114;-82
2022/01/20 08:29:30;;;;;;;2.72;0.40;;;;;;;1.61;56.25;100757.38;4964809;28;20067;-80
2022/01/20 08:31:55;;;;;;;2.20;0.52;;;;;;;1.62;54.08;100745.81;4939142;29;20053;-81
2022/01/20 08:34:21;;;;;;;1.50;0.30;;;;;;;1.62;54.58;100753.78;4967497;28;20023;-81
2022/01/20 08:36:46;;;;;;;1.55;0.30;;;;;;;1.62;55.32;100772.34;4951335;28;20038;-82
2022/01/20 08:40:12;;;;;;;1.25;0.43;;;;;;;1.57;55.35;100765.78;4953919;29;20033;-84
2022/01/20 08:42:07;;;;;;;0.20;0.10;;;;;;;1.62;53.32;100795.34;4943596;29;20039;-81
2022/01/20 08:44:32;;;;;;;2.15;0.40;;;;;;;1.64;54.56;100794.25;4952921;29;20054;-83
2022/01/20 08:46:58;;;;;;;1.00;0.40;;;;;;;1.58;53.60;100756.84;4951491;29;20035;-85
2022/01/20 08:49:25;;;;;;;3.38;0.32;;;;;;;1.54;56.47;100750.16;4963201;29;20063;-85
2022/01/20 08:51:51;;;;;;;1.02;0.28;;;;;;;1.51;53.15;100761.03;4952316;29;20055;-83
2022/01/20 08:54:16;;;;;;;1.50;0.40;;;;;;;1.54;53.31;100756.28;4973889;29;20092;-82
2022/01/20 08:56:42;;;;;;;2.40;0.20;;;;;;;1.56;54.64;100750.88;4973176;28;20047;-86
2022/01/20 08:59:09;;;;;;;0.55;0.20;;;;;;;1.58;54.53;100748.88;4956487;29;20059;-85
2022/01/20 09:01:36;;;;;;;2.08;0.40;;;;;;;1.73;53.08;100758.09;4972153;29;20039;-86
2022/01/20 09:04:02;;;;;;;1.33;0.20;;;;;;;1.63;55.14;100791.75;4957111;29;20023;-87
2022/01/20 09:06:28;;;;;;;2.60;0.38;;;;;;;1.50;54.64;100749.59;4956402;29;20066;-85
2022/01/20 09:08:54;;;;;;;0.93;0.17;;;;;;;1.63;51.44;100791.75;4970422;29;20035;-86
2022/01/20 09:11:22;;;;;;;2.60;0.40;;;;;;;1.58;53.77;100810.72;4944936;29;20066;-85
2022/01/20 09:16:33;;;;;;;0.88;0.10;;;;;;;1.48;51.00;100819.66;4977124;29;20034;-86
2022/01/20 09:18:59;;;;;;;1.15;0.30;;;;;;;1.52;51.55;100821.88;4975194;29;20008;-86
2022/01/20 09:21:26;;;;;;;2.47;0.20;;;;;;;1.59;52.60;100843.38;4978006;29;20063;-86
2022/01/20 09:23:51;;;;;;;0.75;0.20;;;;;;;1.53;51.66;100817.44;4970560;29;20030;-85
2022/01/20 09:26:17;;;;;;;0.65;0.22;;;;;;;1.63;50.51;100815.63;4972064;29;20094;-85
2022/01/20 09:28:43;;;;;;;0.20;0.10;;;;;;;1.56;51.35;100848.97;4953863;29;20031;-86
2022/01/20 09:31:10;;;;;;;1.55;0.40;;;;;;;1.59;51.82;100857.50;4978022;28;20031;-85
2022/01/20 09:33:35;;;;;;;1.17;0.30;;;;;;;1.52;53.45;100851.03;4971804;28;20027;-86
2022/01/20 09:36:07;;;;;;;0.82;0.20;;;;;;;1.53;52.10;100860.69;4949132;29;20413;-85
2022/01/20 09:38:39;;;;;;;1.40;0.30;;;;;;;1.41;50.97;100899.75;4943161;29;20015;-84
2022/01/20 09:41:05;;;;;;;1.80;0.25;;;;;;;1.38;49.05;100892.06;4965751;28;20091;-83
2022/01/20 09:43:31;;;;;;;1.48;0.22;;;;;;;1.39;49.62;100877.84;4974502;29;20018;-85
2022/01/20 09:45:58;;;;;;;0.88;0.30;;;;;;;1.29;51.37;100887.63;4976023;23;20055;-85
2022/01/20 09:48:25;;;;;;;0.35;0.10;;;;;;;0.39;50.80;100710.22;4959821;28;20095;-84
2022/01/20 09:50:52;;;;;;;0.70;0.30;;;;;;;1.04;50.76;100780.31;4958757;29;20034;-83
2022/01/20 09:53:18;;;;;;;1.50;0.45;;;;;;;1.22;49.63;100825.50;4957527;29;20003;-84
2022/01/20 09:55:44;;;;;;;1.48;0.40;;;;;;;0.30;49.48;100732.19;4971087;23;20055;-86
2022/01/20 09:58:11;;;;;;;1.05;0.20;;;;;;;0.49;48.73;100779.91;4943289;29;20039;-87
2022/01/20 10:00:37;;;;;;;1.20;0.20;;;;;;;0.48;50.96;100749.09;4958610;28;20064;-87
2022/01/20 10:03:10;;;;;;;1.13;0.20;;;;;;;0.40;51.05;100723.31;5014977;23;20066;-86
2022/01/20 10:05:37;;;;;;;0.98;0.20;;;;;;;0.78;52.03;100785.28;4934504;29;20032;-86
2022/01/20 10:08:07;;;;;;;1.35;0.30;;;;;;;0.80;51.27;100801.03;4940034;29;20023;-85
2022/01/20 10:11:03;;;;;;;1.65;0.20;;;;;;;1.05;50.61;100855.31;4937351;29;20012;-86
2022/01/20 10:13:33;;;;;;;1.35;0.40;;;;;;;0.44;49.23;100768.88;4937197;29;20102;-85
2022/01/20 10:16:03;;;;;;;0.25;0.10;;;;;;;1.38;48.14;100929.19;4947448;29;20035;-84
2022/01/20 10:18:30;;;;;;;1.45;0.38;;;;;;;0.37;49.67;100783.63;4955365;29;20034;-86
2022/01/20 10:20:58;;;;;;;1.00;0.28;;;;;;;1.35;49.37;100982.47;4950353;29;20019;-86
2022/01/20 10:23:33;;;;;;;1.08;0.30;;;;;;;0.22;47.68;100754.88;4950035;29;20098;-84
2022/01/20 10:26:06;;;;;;;;;;;;;;;1.34;48.44;100935.75;4955028;29;20008;-86
2022/01/20 10:28:47;;;;;;;1.27;0.38;;;;;;;0.95;49.21;100895.03;4957257;29;19922;-84
2022/01/20 10:31:15;;;;;;;1.90;0.20;;;;;;;0.66;48.35;100826.06;4956597;29;20023;-85
2022/01/20 10:33:41;;;;;;;2.70;0.30;;;;;;;0.92;48.57;100853.75;4988984;23;20056;-88
2022/01/20 10:36:10;;;;;;;0.50;0.20;;;;;;;0.28;47.94;100768.53;4946838;29;20008;-86
2022/01/20 10:38:36;;;;;;;1.25;0.20;;;;;;;0.18;48.05;100779.09;4962940;29;20027;-87
2022/01/20 10:41:04;;;;;;;0.32;0.10;;;;;;;0.53;49.14;100855.47;4961686;28;20031;-84
2022/01/20 10:43:35;;;;;;;0.90;0.30;;;;;;;0.41;48.24;100825.56;4964377;29;20037;-85
2022/01/20 10:46:04;;;;;;;1.63;0.40;;;;;;;0.38;49.05;100812.59;4975745;28;20063;-87
2022/01/20 10:48:30;;;;;;;1.92;0.28;;;;;;;0.35;44.82;100812.88;4960617;29;20015;-87
2022/01/20 10:50:55;;;;;;;1.77;0.68;;;;;;;0.72;46.86;100867.06;5041225;23;20124;-87
2022/01/20 10:53:22;;;;;;;1.65;0.35;;;;;;;1.45;46.06;101006.38;4963417;23;20052;-87
2022/01/20 10:55:49;;;;;;;0.73;0.28;;;;;;;0.47;44.33;100832.16;4959708;29;20008;-87
2022/01/20 10:58:23;;;;;;;0.60;0.30;;;;;;;0.89;44.36;100895.56;4959472;29;20059;-88
2022/01/20 11:00:54;;;;;;;6.10;0.50;;;;;;;0.25;43.67;100795.28;4931810;29;20032;-86
2022/01/20 11:03:22;;;;;;;2.13;0.28;;;;;;;0.76;43.77;100893.16;4963098;29;20067;-87
2022/01/20 11:05:53;;;;;;;4.78;0.50;;;;;;;0.42;45.16;100823.75;4939401;29;20024;-87
2022/01/20 11:08:20;;;;;;;1.33;0.40;;;;;;;0.41;43.19;100886.47;4946136;29;20034;-87
2022/01/20 11:10:46;;;;;;;2.33;0.22;;;;;;;1.46;44.23;101023.97;4942128;29;20032;-87
2022/01/20 11:13:13;;;;;;;1.00;0.20;;;;;;;1.30;45.92;101039.56;4942693;29;20100;-88
2022/01/20 11:15:43;;;;;;;0.93;0.25;;;;;;;0.73;43.38;100929.66;4945566;29;20023;-86
2022/01/20 11:18:10;;;;;;;2.65;0.40;;;;;;;1.32;44.11;101042.88;4959280;29;20032;-86
2022/01/20 11:20:42;;;;;;;2.03;0.40;;;;;;;1.27;44.82;101032.69;4952802;29;20028;-88
2022/01/20 11:23:08;;;;;;;1.27;0.30;;;;;;;0.30;44.66;100894.50;4951936;29;20126;-86
2022/01/20 11:25:37;;;;;;;1.70;0.22;;;;;;;1.24;44.34;101051.50;4961302;29;20040;-88
2022/01/20 11:28:03;;;;;;;6.65;0.57;;;;;;;1.36;42.13;101069.03;4950367;28;20043;-86
2022/01/20 11:30:29;;;;;;;1.95;0.30;;;;;;;1.45;42.00;101077.13;4945303;29;20019;-88
2022/01/20 11:32:58;;;;;;;1.67;0.60;;;;;;;1.41;42.49;101008.47;4962630;29;20020;-87
2022/01/20 11:35:35;;;;;;;1.50;0.40;;;;;;;1.38;41.84;101034.41;4959579;29;20035;-87
2022/01/20 11:38:01;;;;;;;2.72;0.40;;;;;;;1.32;43.97;101077.34;4942282;29;20028;-86
2022/01/20 11:40:26;;;;;;;3.88;0.30;;;;;;;1.32;45.50;101064.09;4942338;29;20015;-87
2022/01/20 11:42:59;;;;;;;3.08;0.50;;;;;;;1.36;44.29;101061.06;4954064;29;20039;-86
2022/01/20 11:45:40;;;;;;;1.30;0.35;;;;;;;1.16;44.14;101046.06;4957353;29;20044;-85
2022/01/20 11:48:22;;;;;;;2.50;0.50;;;;;;;1.30;44.65;101082.81;4956268;29;20391;-87
2022/01/20 11:51:02;;;;;;;1.35;0.32;;;;;;;1.31;44.00;101059.78;4940749;29;20059;-87
2022/01/20 11:53:27;;;;;;;3.33;0.57;;;;;;;1.24;45.32;101071.88;4947030;29;20060;-88
2022/01/20 11:55:58;;;;;;;1.65;0.50;;;;;;;1.22;42.64;101130.31;4969655;29;20014;-86
2022/01/20 11:58:25;;;;;;;2.58;0.52;;;;;;;1.25;42.49;101100.06;4980208;29;20034;-86
2022/01/20 12:01:01;;;;;;;2.25;0.40;;;;;;;1.16;44.11;101086.66;4930133;29;20044;-87
2022/01/20 12:03:27;;;;;;;3.72;0.40;;;;;;;1.16;42.70;101059.31;4958619;29;20083;-86
2022/01/20 12:06:14;;;;;;;4.38;0.60;;;;;;;1.17;40.96;101122.78;4940361;29;20019;-87
2022/01/20 12:08:57;;;;;;;4.47;0.63;;;;;;;1.13;42.37;101125.81;4958946;29;20020;-88
2022/01/20 12:11:37;;;;;;;2.03;0.60;;;;;;;1.07;42.46;101083.94;4960121;29;20059;-84
2022/01/20 12:14:03;;;;;;;0.40;0.13;;;;;;;1.10;43.19;101131.38;4939552;29;20024;-87
2022/01/20 12:16:28;;;;;;;2.33;0.50;;;;;;;1.23;42.78;101158.53;4959316;29;20042;-88
2022/01/20 12:18:57;;;;;;;0.80;0.30;;;;;;;1.15;42.68;101100.84;4959152;29;20015;-87
2022/01/20 12:21:24;;;;;;;2.55;0.47;;;;;;;1.22;43.87;101109.09;4940775;29;20020;-87
2022/01/20 12:23:52;;;;;;;1.33;0.30;;;;;;;1.15;44.47;101066.38;4924458;29;20107;-85
2022/01/20 12:26:17;;;;;;;2.42;0.40;;;;;;;1.17;43.62;101103.38;4958122;29;20024;-87
2022/01/20 12:28:42;;;;;;;2.72;0.80;;;;;;;1.17;42.54;101082.19;4959847;29;20032;-87
2022/01/20 12:31:09;;;;;;;2.13;0.50;;;;;;;1.14;44.50;101085.91;4959718;29;20027;-87
2022/01/20 12:33:41;;;;;;;1.33;0.30;;;;;;;1.20;43.98;101104.94;4960447;29;20027;-86
2022/01/20 12:36:12;;;;;;;2.15;0.60;;;;;;;1.04;45.08;101089.50;4960267;29;20016;-86
2022/01/20 12:38:39;;;;;;;2.45;0.40;;;;;;;1.17;44.16;101093.63;4933764;29;20040;-88